Time;durP1;ratioP1;P1;durP2;ratioP2;P2;SDS_P1;SDS_P2;PMS_P1;PMS_P2;Temp;Humidity;BMP_temperature;BMP_pressure;BME280_temperature;BME280_humidity;BME280_pressure;Samples;Min_cycle;Max_cycle;Signal;HPM_P1;HPM_P2
2023/03/12 00:00:49;;;;;;;3.45;1.90;;;0.10;99.90;;;;;;4982808;28;20114;-73
2023/03/12 00:03:15;;;;;;;7.28;3.80;;;0.00;99.90;;;;;;4990666;28;20045;-73
2023/03/12 00:05:43;;;;;;;8.57;4.00;;;0.00;99.90;;;;;;4985861;28;20118;-72
2023/03/12 00:08:09;;;;;;;10.35;5.15;;;0.00;99.90;;;;;;4989148;28;20033;-72
2023/03/12 00:10:39;;;;;;;6.72;3.97;;;0.00;99.90;;;;;;4989200;28;20663;-73
2023/03/12 00:13:06;;;;;;;14.50;4.10;;;0.00;99.90;;;;;;4993297;28;20054;-74
2023/03/12 00:15:36;;;;;;;5.50;3.20;;;0.00;99.90;;;;;;4994157;28;20089;-73
2023/03/12 00:18:02;;;;;;;7.28;3.88;;;0.00;99.90;;;;;;4985349;28;20026;-73
2023/03/12 00:20:28;;;;;;;6.40;3.85;;;0.00;99.90;;;;;;5005766;28;20038;-73
2023/03/12 00:22:54;;;;;;;6.15;2.63;;;-0.10;99.90;;;;;;4990294;28;20034;-73
2023/03/12 00:25:20;;;;;;;8.23;4.15;;;-0.10;99.90;;;;;;4991840;28;20030;-73
2023/03/12 00:27:45;;;;;;;18.05;4.53;;;-0.10;99.90;;;;;;4989303;28;20132;-73
2023/03/12 00:30:12;;;;;;;5.60;3.63;;;-0.10;99.90;;;;;;5008508;28;20490;-73
2023/03/12 00:32:37;;;;;;;4.93;3.15;;;0.00;99.90;;;;;;4994428;28;20368;-73
2023/03/12 00:35:05;;;;;;;5.80;4.10;;;-0.10;99.90;;;;;;4993966;28;20084;-73
2023/03/12 00:37:32;;;;;;;6.95;3.17;;;-0.10;99.90;;;;;;4987982;28;20486;-73
2023/03/12 00:40:00;;;;;;;7.32;4.57;;;0.00;99.90;;;;;;4993704;28;20462;-73
2023/03/12 00:42:27;;;;;;;3.10;1.90;;;-0.10;99.90;;;;;;4986814;28;20156;-73
2023/03/12 00:44:53;;;;;;;7.38;3.15;;;-0.10;99.90;;;;;;5006268;28;20030;-74
2023/03/12 00:47:19;;;;;;;18.90;5.35;;;-0.10;99.90;;;;;;4986986;28;20442;-73
2023/03/12 00:49:44;;;;;;;2.78;1.98;;;-0.10;99.90;;;;;;5008844;28;20113;-73
2023/03/12 00:52:10;;;;;;;7.18;3.90;;;-0.10;99.90;;;;;;4987579;28;20109;-73
2023/03/12 00:54:36;;;;;;;4.13;2.35;;;-0.20;99.90;;;;;;4993698;28;20030;-73
2023/03/12 00:57:02;;;;;;;8.63;2.83;;;-0.20;99.90;;;;;;4993155;28;20363;-73
2023/03/12 00:59:28;;;;;;;10.43;3.25;;;-0.10;99.90;;;;;;4993768;28;20019;-73
2023/03/12 01:01:54;;;;;;;8.27;3.28;;;-0.10;99.90;;;;;;4993414;28;20045;-73
2023/03/12 01:04:19;;;;;;;5.00;3.42;;;-0.10;99.90;;;;;;4993828;28;20037;-74
2023/03/12 01:06:45;;;;;;;7.57;2.88;;;-0.10;99.90;;;;;;4987143;28;20049;-72
2023/03/12 01:09:11;;;;;;;7.35;3.20;;;-0.10;99.90;;;;;;4993517;28;20030;-73
2023/03/12 01:11:37;;;;;;;8.05;3.42;;;-0.10;99.90;;;;;;4993200;28;20045;-73
2023/03/12 01:14:06;;;;;;;5.28;2.83;;;-0.10;99.90;;;;;;4993646;28;20097;-72
2023/03/12 01:16:32;;;;;;;4.28;2.65;;;0.00;99.90;;;;;;4985520;28;20054;-73
2023/03/12 01:18:59;;;;;;;12.23;5.55;;;0.00;99.90;;;;;;4993347;28;20057;-73
2023/03/12 01:21:26;;;;;;;8.20;3.55;;;0.00;99.90;;;;;;4991741;28;20022;-73
2023/03/12 01:23:54;;;;;;;9.90;2.83;;;0.00;99.90;;;;;;4992337;28;20031;-73
2023/03/12 01:26:20;;;;;;;5.45;3.03;;;0.00;99.90;;;;;;4992900;28;20026;-73
2023/03/12 01:28:46;;;;;;;13.00;2.25;;;0.00;99.90;;;;;;5008426;28;20442;-73
2023/03/12 01:31:17;;;;;;;7.78;3.17;;;0.00;99.90;;;;;;4992821;28;20107;-73
2023/03/12 01:33:46;;;;;;;4.38;2.60;;;0.00;99.90;;;;;;4976298;28;20544;-73
2023/03/12 01:36:23;;;;;;;5.47;2.90;;;0.00;99.90;;;;;;4990937;28;20505;-73
2023/03/12 01:38:54;;;;;;;15.68;2.97;;;0.00;99.90;;;;;;4993192;28;20018;-73
2023/03/12 01:41:22;;;;;;;8.95;2.53;;;0.00;99.90;;;;;;4992764;28;20037;-73
2023/03/12 01:43:47;;;;;;;9.15;2.78;;;0.00;99.90;;;;;;4992836;28;20034;-73
2023/03/12 01:46:29;;;;;;;8.13;1.50;;;0.00;99.90;;;;;;4975204;28;20109;-73
2023/03/12 01:49:07;;;;;;;;;;;0.00;99.90;;;;;;4992144;28;20030;-73
2023/03/12 01:51:48;;;;;;;5.57;3.33;;;0.10;99.90;;;;;;4992416;28;19968;-72
2023/03/12 01:57:01;;;;;;;3.80;2.15;;;0.20;99.90;;;;;;4968937;28;20051;-72
2023/03/12 01:59:36;;;;;;;14.40;2.63;;;0.10;99.90;;;;;;4973659;28;20042;-72
2023/03/12 02:02:05;;;;;;;4.20;2.67;;;0.20;99.90;;;;;;4978360;28;20081;-73
2023/03/12 02:04:32;;;;;;;9.02;3.20;;;0.20;99.90;;;;;;4970473;28;20086;-72
2023/03/12 02:07:07;;;;;;;4.32;2.28;;;0.30;99.90;;;;;;4952266;28;20110;-73
2023/03/12 02:09:39;;;;;;;3.42;1.83;;;0.20;99.90;;;;;;4960109;28;20121;-73
2023/03/12 02:12:06;;;;;;;3.63;2.30;;;0.20;99.90;;;;;;4972586;28;20037;-73
2023/03/12 02:14:32;;;;;;;2.55;1.85;;;0.20;99.90;;;;;;4950997;28;20063;-73
2023/03/12 02:16:58;;;;;;;5.47;2.75;;;0.20;99.90;;;;;;4960199;28;20027;-74
2023/03/12 02:19:58;;;;;;;5.05;2.60;;;0.20;99.90;;;;;;4949364;29;20027;-74
2023/03/12 02:22:25;;;;;;;4.88;3.22;;;0.30;99.90;;;;;;4952802;29;20031;-74
2023/03/12 02:25:21;;;;;;;2.65;2.05;;;0.30;99.90;;;;;;4963548;28;20134;-74
2023/03/12 02:27:47;;;;;;;6.53;2.30;;;0.40;99.90;;;;;;4947160;28;20408;-74
2023/03/12 02:30:15;;;;;;;7.20;2.97;;;0.40;99.90;;;;;;4951901;28;20034;-73
2023/03/12 02:32:42;;;;;;;8.63;2.25;;;0.40;99.90;;;;;;4952014;28;20118;-73
2023/03/12 02:35:08;;;;;;;4.78;2.30;;;0.40;99.90;;;;;;4952332;29;20025;-73
2023/03/12 02:37:34;;;;;;;10.63;3.75;;;0.40;99.90;;;;;;4952959;28;20427;-73
2023/03/12 02:40:22;;;;;;;14.63;2.60;;;0.30;99.90;;;;;;4950015;28;20030;-73
2023/03/12 02:42:48;;;;;;;4.18;2.45;;;0.30;99.90;;;;;;4933419;29;20039;-74
2023/03/12 02:45:14;;;;;;;5.47;2.55;;;0.30;99.90;;;;;;4967553;28;20621;-73
2023/03/12 02:47:40;;;;;;;2.85;1.65;;;0.20;99.90;;;;;;4952520;28;20401;-73
2023/03/12 02:50:06;;;;;;;12.40;3.92;;;0.10;99.90;;;;;;4947595;29;20038;-73
2023/03/12 02:52:35;;;;;;;8.13;2.58;;;0.10;99.90;;;;;;4951649;28;20031;-73
2023/03/12 02:55:01;;;;;;;5.30;2.58;;;0.10;99.90;;;;;;4953011;28;20475;-73
2023/03/12 02:57:27;;;;;;;5.78;3.05;;;0.00;99.90;;;;;;4955294;28;20042;-72
2023/03/12 02:59:52;;;;;;;2.50;2.22;;;0.00;99.90;;;;;;4968870;28;20097;-73
2023/03/12 03:02:18;;;;;;;13.73;3.83;;;0.00;99.90;;;;;;4972318;28;20113;-73
2023/03/12 03:04:44;;;;;;;5.45;3.10;;;0.00;99.90;;;;;;4968952;28;20034;-73
2023/03/12 03:07:10;;;;;;;5.80;3.22;;;0.00;99.90;;;;;;4972337;28;20062;-73
2023/03/12 03:09:35;;;;;;;9.68;2.58;;;0.00;99.90;;;;;;4969135;28;20034;-73
2023/03/12 03:12:01;;;;;;;2.65;1.67;;;0.20;99.90;;;;;;4971929;28;20041;-73
2023/03/12 03:14:27;;;;;;;6.55;2.13;;;0.30;99.90;;;;;;4969094;28;20035;-73
2023/03/12 03:16:52;;;;;;;6.10;2.78;;;0.30;99.90;;;;;;4975569;28;20030;-73
2023/03/12 03:19:18;;;;;;;4.90;2.63;;;0.40;99.90;;;;;;4968647;28;20035;-74
2023/03/12 03:21:44;;;;;;;5.95;2.13;;;0.40;99.90;;;;;;4971863;28;20030;-73
2023/03/12 03:24:10;;;;;;;5.30;2.50;;;0.40;99.90;;;;;;4951265;28;20069;-74
2023/03/12 03:26:36;;;;;;;4.22;2.83;;;0.50;99.90;;;;;;4954672;28;20062;-74
2023/03/12 03:29:02;;;;;;;4.82;2.33;;;0.50;99.90;;;;;;4951344;28;20447;-74
2023/03/12 03:31:28;;;;;;;13.60;2.67;;;0.50;99.90;;;;;;4948049;28;20038;-74
2023/03/12 03:33:54;;;;;;;3.92;1.75;;;0.50;99.90;;;;;;4969405;28;20034;-74
2023/03/12 03:36:22;;;;;;;3.72;2.40;;;0.60;99.90;;;;;;4965280;28;20402;-73
2023/03/12 03:38:49;;;;;;;6.68;2.65;;;0.60;99.90;;;;;;4954667;28;20470;-74
2023/03/12 03:41:19;;;;;;;4.35;2.35;;;0.50;99.90;;;;;;4965317;28;20097;-73
2023/03/12 03:43:46;;;;;;;4.32;2.92;;;0.40;99.90;;;;;;4957980;28;20038;-74
2023/03/12 03:46:13;;;;;;;7.30;2.78;;;0.50;99.90;;;;;;4969560;28;20549;-74
2023/03/12 03:48:40;;;;;;;6.13;2.95;;;0.40;99.90;;;;;;4958407;28;20434;-74
2023/03/12 03:51:07;;;;;;;5.50;2.47;;;0.40;99.90;;;;;;4952335;28;20035;-74
2023/03/12 03:53:33;;;;;;;3.42;1.60;;;0.40;99.90;;;;;;4958547;28;20034;-75
2023/03/12 03:56:09;;;;;;;7.43;2.45;;;0.60;99.90;;;;;;4952295;28;20038;-74
2023/03/12 03:58:35;;;;;;;3.15;2.00;;;0.60;99.90;;;;;;4960076;28;20034;-74
2023/03/12 04:01:01;;;;;;;2.45;1.45;;;0.60;99.90;;;;;;4947101;28;20499;-74
2023/03/12 04:03:27;;;;;;;1.17;0.85;;;0.70;99.90;;;;;;4957541;28;20559;-74
2023/03/12 04:05:59;;;;;;;3.08;2.05;;;0.80;99.90;;;;;;4971646;28;20026;-74
2023/03/12 04:08:26;;;;;;;6.63;1.38;;;0.90;99.90;;;;;;4975243;28;20082;-73
2023/03/12 04:10:52;;;;;;;4.03;2.20;;;0.90;99.90;;;;;;4955267;28;20614;-74
2023/03/12 04:13:18;;;;;;;2.28;1.83;;;1.00;99.90;;;;;;4975315;28;20062;-74
2023/03/12 04:15:53;;;;;;;1.63;1.30;;;1.00;99.90;;;;;;4959834;28;20031;-74
2023/03/12 04:18:19;;;;;;;8.65;1.67;;;1.00;99.90;;;;;;4975121;28;20030;-73
2023/03/12 04:20:45;;;;;;;3.03;1.80;;;1.00;99.90;;;;;;4964221;28;20034;-74
2023/03/12 04:23:11;;;;;;;5.75;2.38;;;0.80;99.90;;;;;;4957922;28;20038;-75
2023/03/12 04:25:38;;;;;;;4.50;2.53;;;0.70;99.90;;;;;;4972640;28;20039;-75
2023/03/12 04:28:04;;;;;;;6.35;2.42;;;0.80;99.90;;;;;;4957663;28;20042;-75
2023/03/12 04:30:30;;;;;;;4.53;2.70;;;0.70;99.90;;;;;;4954945;28;20116;-75
2023/03/12 04:32:56;;;;;;;5.03;2.90;;;0.80;99.90;;;;;;4973696;28;20063;-75
2023/03/12 04:35:23;;;;;;;4.93;2.38;;;0.80;99.90;;;;;;4972523;28;20050;-75
2023/03/12 04:37:50;;;;;;;4.05;2.00;;;0.90;99.90;;;;;;4957972;28;20117;-74
2023/03/12 04:40:18;;;;;;;4.97;3.35;;;1.00;99.90;;;;;;4955120;28;20034;-74
2023/03/12 04:42:44;;;;;;;5.10;1.73;;;1.00;99.90;;;;;;4957946;28;20041;-75
2023/03/12 04:45:10;;;;;;;4.60;2.10;;;1.10;99.90;;;;;;4955219;28;20086;-75
2023/03/12 04:47:36;;;;;;;5.57;1.77;;;1.00;99.90;;;;;;4957669;28;20023;-74
2023/03/12 04:50:02;;;;;;;12.25;3.03;;;1.10;99.90;;;;;;4971835;28;20557;-74
2023/03/12 04:52:28;;;;;;;4.35;2.05;;;1.00;99.90;;;;;;4957430;28;20395;-75
2023/03/12 04:54:55;;;;;;;11.65;2.65;;;1.00;99.90;;;;;;4971088;28;20042;-75
2023/03/12 04:57:21;;;;;;;2.65;1.67;;;1.00;99.90;;;;;;4974742;28;20034;-75
2023/03/12 04:59:47;;;;;;;3.58;1.50;;;1.10;99.90;;;;;;4954250;28;20039;-75
2023/03/12 05:02:13;;;;;;;2.78;1.35;;;1.10;99.90;;;;;;4957424;28;20026;-75
2023/03/12 05:04:38;;;;;;;5.78;1.95;;;1.20;99.90;;;;;;4971869;28;20031;-75
2023/03/12 05:07:04;;;;;;;4.30;1.88;;;1.30;99.90;;;;;;4974398;28;20388;-75
2023/03/12 05:09:30;;;;;;;5.53;1.80;;;1.40;99.90;;;;;;4971622;28;20035;-74
2023/03/12 05:11:56;;;;;;;2.33;0.90;;;1.40;99.90;;;;;;4971629;28;20054;-75
2023/03/12 05:14:22;;;;;;;1.20;0.88;;;1.50;99.90;;;;;;4974903;28;20125;-74
2023/03/12 05:16:48;;;;;;;1.80;0.88;;;1.50;99.90;;;;;;4981521;28;20475;-75
2023/03/12 05:19:14;;;;;;;2.35;1.42;;;1.40;99.90;;;;;;4956366;28;20105;-75
2023/03/12 05:21:41;;;;;;;1.20;0.95;;;1.40;99.90;;;;;;4971619;28;20031;-75
2023/03/12 05:24:08;;;;;;;3.72;1.50;;;1.20;99.90;;;;;;4974009;28;20058;-75
2023/03/12 05:26:35;;;;;;;1.88;1.17;;;1.10;99.90;;;;;;4969292;28;22247;-74
2023/03/12 05:29:03;;;;;;;3.90;1.63;;;0.90;99.90;;;;;;4954368;28;20019;-74
2023/03/12 05:31:31;;;;;;;2.38;1.40;;;0.80;99.90;;;;;;4955735;28;20376;-74
2023/03/12 05:33:58;;;;;;;5.93;1.23;;;0.60;99.90;;;;;;4940911;28;20094;-74
2023/03/12 05:36:24;;;;;;;1.83;1.13;;;0.50;99.90;;;;;;4956111;28;20113;-75
2023/03/12 05:38:50;;;;;;;1.83;1.33;;;0.50;99.90;;;;;;4952737;28;20547;-74
2023/03/12 05:41:23;;;;;;;0.70;0.70;;;0.50;99.90;;;;;;4972665;28;20407;-74
2023/03/12 05:43:50;;;;;;;5.00;1.20;;;0.50;99.90;;;;;;4952755;28;20042;-75
2023/03/12 05:46:16;;;;;;;11.70;1.20;;;0.40;99.90;;;;;;4973828;28;20162;-76
2023/03/12 05:48:42;;;;;;;2.72;1.05;;;0.40;99.90;;;;;;4969417;28;20571;-73
2023/03/12 05:51:08;;;;;;;1.45;0.60;;;0.50;99.90;;;;;;4973427;28;20035;-73
2023/03/12 05:53:33;;;;;;;1.20;0.95;;;0.50;99.90;;;;;;4951725;28;20096;-73
2023/03/12 05:56:09;;;;;;;9.93;0.90;;;0.50;99.90;;;;;;4973133;28;20022;-74
2023/03/12 05:58:36;;;;;;;1.35;1.25;;;0.50;99.90;;;;;;4952185;28;20037;-74
2023/03/12 06:01:10;;;;;;;1.55;0.90;;;0.50;99.90;;;;;;4956240;28;20185;-75
2023/03/12 06:03:36;;;;;;;2.55;1.83;;;0.50;99.90;;;;;;4948217;28;20031;-74
2023/03/12 06:06:01;;;;;;;0.95;0.80;;;0.50;99.90;;;;;;4970086;28;20442;-74
2023/03/12 06:08:27;;;;;;;4.75;1.45;;;0.60;99.90;;;;;;4969092;28;20026;-75
2023/03/12 06:10:53;;;;;;;7.90;2.33;;;0.60;99.90;;;;;;4972883;28;20034;-74
2023/03/12 06:13:21;;;;;;;7.72;1.67;;;0.60;99.90;;;;;;4969132;28;20073;-74
2023/03/12 06:15:48;;;;;;;1.95;1.33;;;0.60;99.90;;;;;;4964311;28;20030;-74
2023/03/12 06:18:14;;;;;;;3.08;1.30;;;0.60;99.90;;;;;;4968734;28;20117;-75
2023/03/12 06:20:41;;;;;;;3.78;1.38;;;0.60;99.90;;;;;;4955525;28;20053;-75
2023/03/12 06:23:06;;;;;;;2.75;1.58;;;0.60;99.90;;;;;;4951538;28;20031;-75
2023/03/12 06:25:32;;;;;;;1.52;1.10;;;0.70;99.90;;;;;;4972935;28;20037;-69
2023/03/12 06:27:58;;;;;;;2.10;0.88;;;0.70;99.90;;;;;;4964444;28;20054;-69
2023/03/12 06:30:25;;;;;;;2.65;1.48;;;0.80;99.90;;;;;;4970985;28;20402;-71
2023/03/12 06:32:51;;;;;;;2.70;1.90;;;0.80;99.90;;;;;;4964979;28;20026;-69
2023/03/12 06:35:17;;;;;;;9.68;1.17;;;0.80;99.90;;;;;;4951170;28;20037;-70
2023/03/12 06:37:43;;;;;;;2.10;1.55;;;0.80;99.90;;;;;;4965931;28;20054;-69
2023/03/12 06:40:10;;;;;;;2.30;1.38;;;0.80;99.90;;;;;;4970253;28;20090;-69
2023/03/12 06:42:36;;;;;;;1.63;1.38;;;0.90;99.90;;;;;;4964287;28;20027;-70
2023/03/12 06:45:02;;;;;;;4.03;1.77;;;0.90;99.90;;;;;;4966343;28;20064;-70
2023/03/12 06:47:28;;;;;;;2.08;1.38;;;0.90;99.90;;;;;;4971219;28;20054;-69
2023/03/12 06:49:54;;;;;;;17.80;1.75;;;1.00;99.90;;;;;;4967272;28;20403;-70
2023/03/12 06:52:19;;;;;;;17.20;1.67;;;1.00;99.90;;;;;;4972512;28;20542;-68
2023/03/12 06:54:45;;;;;;;2.25;1.00;;;1.10;99.90;;;;;;4964564;28;20157;-71
2023/03/12 06:57:11;;;;;;;0.75;0.75;;;1.10;99.90;;;;;;4964782;28;20031;-70
2023/03/12 06:59:37;;;;;;;2.55;1.00;;;1.10;99.90;;;;;;4957103;28;20505;-70
2023/03/12 07:02:03;;;;;;;1.70;1.50;;;1.20;99.90;;;;;;4969921;28;20050;-69
2023/03/12 07:04:29;;;;;;;0.98;0.75;;;1.20;99.90;;;;;;4968139;28;20031;-70
2023/03/12 07:06:55;;;;;;;2.03;1.17;;;1.20;99.90;;;;;;4967701;28;20504;-70
2023/03/12 07:09:21;;;;;;;3.67;1.42;;;1.30;99.90;;;;;;4969843;28;20123;-70
2023/03/12 07:11:47;;;;;;;21.58;1.95;;;1.20;99.90;;;;;;4967766;28;20403;-69
2023/03/12 07:14:13;;;;;;;1.85;1.17;;;1.20;99.90;;;;;;4969984;28;20035;-69
2023/03/12 07:16:38;;;;;;;7.63;2.08;;;1.30;99.90;;;;;;4966859;28;20106;-70
2023/03/12 07:19:05;;;;;;;4.40;2.25;;;1.30;99.90;;;;;;4970649;28;20541;-69
2023/03/12 07:21:30;;;;;;;5.03;1.40;;;1.40;99.90;;;;;;4965768;28;20026;-70
2023/03/12 07:23:57;;;;;;;3.03;1.75;;;1.40;99.90;;;;;;4971790;28;20038;-69
2023/03/12 07:26:23;;;;;;;1.90;1.38;;;1.50;99.90;;;;;;4965294;28;20034;-66
2023/03/12 07:28:48;;;;;;;1.58;1.33;;;1.50;99.90;;;;;;4971491;28;20041;-71
2023/03/12 07:31:14;;;;;;;3.38;2.20;;;1.50;99.90;;;;;;4964306;28;20039;-69
2023/03/12 07:33:40;;;;;;;5.25;2.67;;;1.50;99.90;;;;;;4961240;28;20367;-69
2023/03/12 07:36:06;;;;;;;2.55;1.60;;;1.50;99.90;;;;;;4964699;28;20031;-69
2023/03/12 07:38:32;;;;;;;5.55;3.83;;;1.50;99.90;;;;;;4960303;28;20042;-70
2023/03/12 07:40:59;;;;;;;3.55;1.90;;;1.60;99.90;;;;;;4956182;28;20035;-70
2023/03/12 07:43:25;;;;;;;2.35;1.77;;;1.70;99.90;;;;;;4964124;28;20054;-68
2023/03/12 07:45:51;;;;;;;2.97;2.13;;;1.60;99.90;;;;;;4970297;28;20502;-71
2023/03/12 07:48:20;;;;;;;5.40;2.25;;;1.60;99.90;;;;;;4952734;28;20046;-68
2023/03/12 07:50:46;;;;;;;2.67;1.65;;;1.60;99.90;;;;;;4966948;28;20031;-71
2023/03/12 07:53:12;;;;;;;4.35;2.00;;;1.60;99.90;;;;;;4968938;28;20054;-68
2023/03/12 07:55:37;;;;;;;5.50;2.90;;;1.70;99.90;;;;;;4966111;28;20062;-70
2023/03/12 07:58:04;;;;;;;4.38;2.88;;;1.70;99.90;;;;;;4970082;28;20053;-68
2023/03/12 08:00:30;;;;;;;3.35;1.75;;;1.60;99.90;;;;;;4965116;28;20501;-69
2023/03/12 08:02:57;;;;;;;3.55;2.05;;;1.60;99.90;;;;;;4953540;28;20045;-68
2023/03/12 08:05:23;;;;;;;6.95;2.72;;;1.70;99.90;;;;;;4954445;28;20492;-66
2023/03/12 08:07:51;;;;;;;15.35;4.25;;;1.70;99.90;;;;;;4954232;28;20630;-67
2023/03/12 08:10:17;;;;;;;10.38;2.75;;;1.80;99.90;;;;;;4962262;28;20082;-66
2023/03/12 08:12:43;;;;;;;4.78;3.03;;;1.90;99.90;;;;;;4971611;28;20078;-67
2023/03/12 08:15:11;;;;;;;4.70;3.05;;;1.90;99.90;;;;;;4945887;28;20023;-66
2023/03/12 08:17:38;;;;;;;4.70;2.90;;;1.90;99.90;;;;;;4954016;28;20039;-68
2023/03/12 08:20:08;;;;;;;10.68;3.03;;;1.90;99.90;;;;;;4963023;28;20034;-67
2023/03/12 08:22:34;;;;;;;4.82;3.10;;;1.90;99.90;;;;;;4970484;28;20034;-68
2023/03/12 08:25:00;;;;;;;7.65;3.90;;;1.80;99.90;;;;;;4962234;28;20109;-70
2023/03/12 08:27:26;;;;;;;8.43;3.70;;;1.90;99.90;;;;;;4966032;28;20026;-69
2023/03/12 08:29:51;;;;;;;9.82;4.07;;;1.90;99.90;;;;;;4964354;28;20031;-71
2023/03/12 08:32:17;;;;;;;4.82;2.92;;;2.00;99.90;;;;;;4967038;28;20089;-68
2023/03/12 08:34:43;;;;;;;4.03;2.75;;;2.00;99.90;;;;;;4967129;28;20027;-70
2023/03/12 08:37:09;;;;;;;6.05;3.15;;;2.10;99.90;;;;;;4974632;28;20533;-69
2023/03/12 08:39:35;;;;;;;12.98;3.70;;;2.20;99.90;;;;;;4966735;28;20035;-70
2023/03/12 08:42:01;;;;;;;7.28;3.65;;;2.20;99.90;;;;;;4974044;28;20069;-70
2023/03/12 08:44:27;;;;;;;13.15;4.10;;;2.30;99.90;;;;;;4966847;28;20031;-70
2023/03/12 08:46:53;;;;;;;14.30;3.63;;;2.40;99.90;;;;;;4957091;28;20798;-70
2023/03/12 08:49:20;;;;;;;8.18;3.00;;;2.40;99.90;;;;;;4966652;28;20122;-71
2023/03/12 08:51:46;;;;;;;4.70;2.10;;;2.30;99.90;;;;;;4957102;28;20428;-71
2023/03/12 08:54:12;;;;;;;6.78;2.90;;;2.30;99.90;;;;;;4958514;28;20535;-70
2023/03/12 08:56:41;;;;;;;4.47;2.25;;;2.30;99.90;;;;;;4971082;28;20117;-71
2023/03/12 08:59:11;;;;;;;7.72;2.58;;;2.30;99.90;;;;;;4972778;28;20023;-71
2023/03/12 09:01:38;;;;;;;14.37;3.30;;;2.50;99.90;;;;;;4971954;28;20031;-70
2023/03/12 09:04:05;;;;;;;5.45;3.38;;;2.60;99.90;;;;;;4957175;28;20110;-71
2023/03/12 09:06:32;;;;;;;7.43;2.20;;;2.60;99.90;;;;;;4972628;28;20530;-70
2023/03/12 09:09:03;;;;;;;5.82;3.78;;;2.70;99.90;;;;;;4959727;28;20509;-71
2023/03/12 09:11:33;;;;;;;5.35;2.38;;;3.00;99.90;;;;;;4957532;28;20035;-71
2023/03/12 09:14:00;;;;;;;5.13;2.60;;;3.00;99.90;;;;;;4971745;28;20023;-71
2023/03/12 09:16:26;;;;;;;6.30;2.42;;;3.10;99.90;;;;;;4972827;28;20105;-71
2023/03/12 09:18:53;;;;;;;16.38;3.55;;;3.10;99.90;;;;;;4956237;28;20117;-71
2023/03/12 09:21:19;;;;;;;14.75;4.65;;;3.20;99.90;;;;;;4973371;28;20034;-71
2023/03/12 09:23:46;;;;;;;20.65;4.65;;;3.20;99.90;;;;;;4952846;28;20033;-71
2023/03/12 09:26:12;;;;;;;12.15;3.22;;;3.30;99.90;;;;;;4973875;28;20185;-71
2023/03/12 09:28:38;;;;;;;7.22;3.17;;;3.30;99.90;;;;;;4951874;28;20030;-72
2023/03/12 09:31:05;;;;;;;3.90;2.55;;;3.40;99.90;;;;;;4956311;28;20157;-76
2023/03/12 09:33:34;;;;;;;9.23;5.35;;;3.50;99.90;;;;;;4962587;28;20034;-75
2023/03/12 09:36:01;;;;;;;4.32;2.83;;;3.40;99.90;;;;;;4957278;28;20047;-80
2023/03/12 09:38:27;;;;;;;5.15;2.58;;;3.50;99.90;;;;;;4968202;28;20037;-81
2023/03/12 09:40:55;;;;;;;7.63;3.88;;;3.60;99.90;;;;;;4956462;28;20023;-74
2023/03/12 09:43:40;;;;;;;7.10;2.95;;;3.60;99.90;;;;;;4951543;28;20046;-80
2023/03/12 09:46:17;;;;;;;6.32;3.47;;;3.70;99.90;;;;;;4973735;28;20027;-79
2023/03/12 09:48:44;;;;;;;4.45;2.75;;;3.70;99.90;;;;;;4967285;28;20027;-78
2023/03/12 09:51:39;;;;;;;6.75;3.13;;;3.70;99.90;;;;;;4956113;28;20030;-80
2023/03/12 09:54:24;;;;;;;7.50;4.53;;;3.80;99.90;;;;;;4952541;28;20019;-79
2023/03/12 09:56:54;;;;;;;7.55;3.92;;;3.80;99.90;;;;;;4953148;28;20486;-79
2023/03/12 09:59:19;;;;;;;7.38;3.90;;;3.80;99.90;;;;;;4952961;28;20023;-80
2023/03/12 10:01:58;;;;;;;16.85;4.47;;;4.00;99.90;;;;;;4958737;28;20121;-77
2023/03/12 10:04:26;;;;;;;5.03;3.33;;;4.10;99.90;;;;;;4953271;28;20521;-78
2023/03/12 10:07:10;;;;;;;11.85;4.15;;;4.20;99.90;;;;;;4972990;28;20412;-78
2023/03/12 10:09:45;;;;;;;8.63;4.55;;;4.10;99.90;;;;;;4970239;28;20034;-78
2023/03/12 10:12:35;;;;;;;7.97;3.83;;;4.20;99.90;;;;;;4973072;28;20042;-78
2023/03/12 10:15:41;;;;;;;5.70;3.60;;;4.50;99.90;;;;;;4970453;28;20027;-79
2023/03/12 10:18:54;;;;;;;6.28;4.25;;;4.30;99.90;;;;;;4972953;28;20454;-78
2023/03/12 10:21:47;;;;;;;9.07;5.75;;;4.40;99.90;;;;;;4957330;28;20070;-79
2023/03/12 10:24:34;;;;;;;5.07;3.25;;;4.40;99.90;;;;;;4953570;28;20027;-79
2023/03/12 10:27:00;;;;;;;6.07;3.38;;;4.60;99.90;;;;;;4956901;28;20039;-80
2023/03/12 10:29:34;;;;;;;14.07;4.30;;;4.40;99.90;;;;;;4969919;28;20442;-79
2023/03/12 10:32:17;;;;;;;7.90;4.68;;;4.50;99.90;;;;;;4954175;28;20440;-79
2023/03/12 10:35:02;;;;;;;6.55;4.82;;;4.90;99.90;;;;;;4927764;28;20035;-79
2023/03/12 10:37:36;;;;;;;10.07;5.20;;;5.10;99.90;;;;;;4956534;28;20042;-79
2023/03/12 10:40:04;;;;;;;9.43;4.30;;;5.40;99.90;;;;;;4952564;28;20550;-80
2023/03/12 10:42:30;;;;;;;7.90;4.47;;;5.40;99.90;;;;;;4972600;28;20022;-79
2023/03/12 10:45:22;;;;;;;8.93;4.40;;;5.60;99.90;;;;;;4969645;28;20027;-79
2023/03/12 10:47:56;;;;;;;8.07;4.30;;;5.70;99.90;;;;;;4956301;28;20054;-80
2023/03/12 10:50:31;;;;;;;7.65;4.80;;;5.70;99.90;;;;;;4952556;28;20039;-80
2023/03/12 10:53:32;;;;;;;10.70;4.15;;;5.60;99.90;;;;;;4972151;28;20030;-80
2023/03/12 10:56:16;;;;;;;7.40;4.18;;;5.30;99.90;;;;;;4937907;28;20495;-79
2023/03/12 10:58:51;;;;;;;9.98;4.97;;;5.30;99.90;;;;;;4954418;28;20038;-80
2023/03/12 11:01:25;;;;;;;6.93;3.70;;;5.10;99.90;;;;;;4971948;28;20038;-80
2023/03/12 11:04:06;;;;;;;14.18;4.47;;;5.20;99.90;;;;;;4970567;28;20030;-80
2023/03/12 11:06:32;;;;;;;8.05;4.70;;;5.20;99.90;;;;;;4958971;28;20041;-80
2023/03/12 11:09:16;;;;;;;7.25;4.70;;;5.40;99.90;;;;;;4970455;28;20031;-80
2023/03/12 11:11:44;;;;;;;10.90;3.85;;;5.40;99.90;;;;;;4955127;28;20043;-79
2023/03/12 11:14:23;;;;;;;7.45;4.05;;;5.50;99.90;;;;;;4952796;28;20019;-80
2023/03/12 11:16:51;;;;;;;5.53;3.78;;;5.50;99.90;;;;;;4973081;28;20372;-79
2023/03/12 11:19:32;;;;;;;6.68;3.58;;;5.50;99.90;;;;;;4954128;28;20027;-81
2023/03/12 11:22:06;;;;;;;7.75;4.22;;;5.50;99.90;;;;;;4956570;28;20033;-79
2023/03/12 11:24:33;;;;;;;6.82;3.97;;;5.50;99.90;;;;;;4970924;28;20483;-80
2023/03/12 11:27:29;;;;;;;7.22;3.50;;;5.60;99.90;;;;;;4955141;28;20542;-79
2023/03/12 11:29:55;;;;;;;6.88;3.67;;;5.70;99.90;;;;;;4960715;28;20506;-79
2023/03/12 11:32:34;;;;;;;8.05;4.97;;;5.90;99.90;;;;;;4971800;28;20070;-79
2023/03/12 11:35:00;;;;;;;9.57;5.20;;;6.00;99.90;;;;;;4968826;28;20101;-80
2023/03/12 11:37:51;;;;;;;15.27;4.85;;;6.10;99.90;;;;;;4954736;28;20039;-79
2023/03/12 11:41:17;;;;;;;5.95;3.65;;;6.30;99.90;;;;;;4968705;28;20045;-80
2023/03/12 11:44:18;;;;;;;9.45;4.75;;;6.80;99.90;;;;;;4952987;28;20066;-80
2023/03/12 11:47:19;;;;;;;7.18;4.05;;;7.30;99.90;;;;;;4957897;28;20674;-79
2023/03/12 11:50:36;;;;;;;6.90;4.82;;;7.60;99.90;;;;;;4968592;28;20053;-79
2023/03/12 11:53:46;;;;;;;6.35;3.65;;;7.60;99.90;;;;;;4969554;28;20046;-80
2023/03/12 11:56:30;;;;;;;7.55;3.40;;;8.10;99.90;;;;;;4970716;28;20490;-80
2023/03/12 11:59:17;;;;;;;12.45;4.22;;;8.10;99.90;;;;;;4952051;28;20578;-80
2023/03/12 12:02:12;;;;;;;9.23;4.63;;;8.40;99.90;;;;;;4971461;28;20082;-79
2023/03/12 12:05:21;;;;;;;5.32;3.10;;;9.00;99.90;;;;;;4954844;28;20023;-79
2023/03/12 12:08:12;;;;;;;9.45;3.97;;;8.60;99.90;;;;;;4971262;28;20173;-80
2023/03/12 12:11:05;;;;;;;8.02;3.65;;;9.00;99.90;;;;;;4972363;28;20045;-80
2023/03/12 12:14:05;;;;;;;7.95;4.00;;;8.70;99.90;;;;;;4955055;28;20039;-80
2023/03/12 12:16:55;;;;;;;6.45;4.15;;;9.00;99.90;;;;;;4969076;28;20034;-80
2023/03/12 12:19:36;;;;;;;10.38;3.80;;;9.40;99.90;;;;;;4972231;28;20062;-79
2023/03/12 12:22:35;;;;;;;6.47;3.22;;;9.10;99.90;;;;;;4975480;28;20035;-80
2023/03/12 12:25:22;;;;;;;8.02;3.92;;;9.30;99.90;;;;;;4970922;28;20592;-80
2023/03/12 12:28:26;;;;;;;10.13;3.50;;;9.40;99.90;;;;;;4974996;28;20403;-81
2023/03/12 12:31:13;;;;;;;7.03;3.05;;;9.70;99.90;;;;;;4971699;28;20042;-80
2023/03/12 12:34:07;;;;;;;5.25;3.60;;;9.50;99.90;;;;;;4938677;28;20437;-80
2023/03/12 12:36:35;;;;;;;6.03;3.05;;;9.40;99.90;;;;;;4959304;28;20502;-81
2023/03/12 12:39:26;;;;;;;8.32;3.13;;;9.60;99.90;;;;;;4954883;28;20625;-80
2023/03/12 12:41:56;;;;;;;;;;;9.40;99.90;;;;;;4959112;28;20038;-81
2023/03/12 12:44:32;;;;;;;9.48;4.07;;;10.00;99.90;;;;;;4971002;28;20072;-81
2023/03/12 12:47:05;;;;;;;4.63;2.90;;;10.00;99.90;;;;;;4957808;28;20023;-80
2023/03/12 12:49:56;;;;;;;7.10;3.50;;;9.80;99.90;;;;;;4954703;28;20037;-80
2023/03/12 12:52:23;;;;;;;7.55;3.53;;;9.60;99.90;;;;;;4950594;28;20035;-80
2023/03/12 12:55:22;;;;;;;4.65;3.53;;;9.50;99.90;;;;;;4954241;28;20033;-80
2023/03/12 12:57:59;;;;;;;6.00;4.32;;;9.40;99.90;;;;;;4966181;28;20085;-81
2023/03/12 13:01:01;;;;;;;9.18;3.40;;;9.40;99.90;;;;;;4967766;28;20034;-81
2023/03/12 13:03:29;;;;;;;7.25;3.13;;;9.70;99.90;;;;;;4914447;29;20404;-81
2023/03/12 13:06:02;;;;;;;6.07;3.05;;;10.00;99.90;;;;;;4940994;28;20474;-82
2023/03/12 13:08:58;;;;;;;6.07;3.13;;;10.40;99.90;;;;;;4957294;28;20498;-82
2023/03/12 13:11:42;;;;;;;4.95;2.85;;;11.10;99.90;;;;;;4962710;28;20049;-83
2023/03/12 13:14:08;;;;;;;5.32;2.38;;;12.20;99.90;;;;;;4954728;28;20110;-82
2023/03/12 13:16:37;;;;;;;5.00;2.67;;;12.00;99.90;;;;;;4956364;28;20190;-82
2023/03/12 13:19:24;;;;;;;5.25;3.20;;;12.60;99.90;;;;;;4971163;28;20050;-83